sensor_id;sensor_type;location;lat;lon;timestamp;temperature;humidity
78788;DHT22;68131;52.508;5.502;2023-05-07T00:00:10;15.60;79.10
78788;DHT22;68131;52.508;5.502;2023-05-07T00:02:41;15.60;79.00
78788;DHT22;68131;52.508;5.502;2023-05-07T00:05:11;15.60;78.90
78788;DHT22;68131;52.508;5.502;2023-05-07T00:07:40;15.60;78.80
78788;DHT22;68131;52.508;5.502;2023-05-07T00:10:10;15.60;78.80
78788;DHT22;68131;52.508;5.502;2023-05-07T00:12:42;15.70;78.80
78788;DHT22;68131;52.508;5.502;2023-05-07T00:15:11;15.70;78.60
78788;DHT22;68131;52.508;5.502;2023-05-07T00:17:40;15.70;78.60
78788;DHT22;68131;52.508;5.502;2023-05-07T00:20:10;15.70;78.50
78788;DHT22;68131;52.508;5.502;2023-05-07T00:22:39;15.80;78.40
78788;DHT22;68131;52.508;5.502;2023-05-07T00:25:08;15.80;78.40
78788;DHT22;68131;52.508;5.502;2023-05-07T00:27:40;15.80;78.20
78788;DHT22;68131;52.508;5.502;2023-05-07T00:30:11;15.80;78.20
78788;DHT22;68131;52.508;5.502;2023-05-07T00:32:40;15.80;78.10
78788;DHT22;68131;52.508;5.502;2023-05-07T00:35:11;15.80;78.10
78788;DHT22;68131;52.508;5.502;2023-05-07T00:37:41;15.80;78.10
78788;DHT22;68131;52.508;5.502;2023-05-07T00:40:10;15.80;78.10
78788;DHT22;68131;52.508;5.502;2023-05-07T00:42:42;15.80;78.10
78788;DHT22;68131;52.508;5.502;2023-05-07T00:45:13;15.80;78.00
78788;DHT22;68131;52.508;5.502;2023-05-07T00:47:43;15.80;77.90
78788;DHT22;68131;52.508;5.502;2023-05-07T00:50:12;15.80;78.00
78788;DHT22;68131;52.508;5.502;2023-05-07T00:52:43;15.70;77.90
78788;DHT22;68131;52.508;5.502;2023-05-07T00:55:12;15.70;77.90
78788;DHT22;68131;52.508;5.502;2023-05-07T00:57:44;15.70;77.80
78788;DHT22;68131;52.508;5.502;2023-05-07T01:00:14;15.70;77.80
78788;DHT22;68131;52.508;5.502;2023-05-07T01:02:44;15.80;77.80
78788;DHT22;68131;52.508;5.502;2023-05-07T01:05:15;15.80;77.80
78788;DHT22;68131;52.508;5.502;2023-05-07T01:07:45;15.80;77.70
78788;DHT22;68131;52.508;5.502;2023-05-07T01:10:16;15.80;77.60
78788;DHT22;68131;52.508;5.502;2023-05-07T01:12:49;15.80;77.50
78788;DHT22;68131;52.508;5.502;2023-05-07T01:15:18;15.80;77.50
78788;DHT22;68131;52.508;5.502;2023-05-07T01:17:47;15.80;77.40
78788;DHT22;68131;52.508;5.502;2023-05-07T01:20:23;15.80;77.40
78788;DHT22;68131;52.508;5.502;2023-05-07T01:22:57;15.80;77.60
78788;DHT22;68131;52.508;5.502;2023-05-07T01:25:27;15.70;77.60
78788;DHT22;68131;52.508;5.502;2023-05-07T01:27:59;15.70;77.50
78788;DHT22;68131;52.508;5.502;2023-05-07T01:30:31;15.70;77.50
78788;DHT22;68131;52.508;5.502;2023-05-07T01:33:08;15.70;77.40
78788;DHT22;68131;52.508;5.502;2023-05-07T01:35:40;15.70;77.50
78788;DHT22;68131;52.508;5.502;2023-05-07T01:38:13;15.70;77.50
78788;DHT22;68131;52.508;5.502;2023-05-07T01:40:43;15.70;77.40
78788;DHT22;68131;52.508;5.502;2023-05-07T01:43:12;15.70;77.30
78788;DHT22;68131;52.508;5.502;2023-05-07T01:45:42;15.70;77.50
78788;DHT22;68131;52.508;5.502;2023-05-07T01:48:11;15.70;77.40
78788;DHT22;68131;52.508;5.502;2023-05-07T01:50:42;15.70;77.50
78788;DHT22;68131;52.508;5.502;2023-05-07T01:53:14;15.70;77.50
78788;DHT22;68131;52.508;5.502;2023-05-07T01:55:43;15.80;77.40
78788;DHT22;68131;52.508;5.502;2023-05-07T01:58:12;15.80;77.40
78788;DHT22;68131;52.508;5.502;2023-05-07T02:00:41;15.80;77.40
78788;DHT22;68131;52.508;5.502;2023-05-07T02:03:11;15.80;77.40
78788;DHT22;68131;52.508;5.502;2023-05-07T02:05:57;15.80;77.40
78788;DHT22;68131;52.508;5.502;2023-05-07T02:08:40;15.80;77.40
78788;DHT22;68131;52.508;5.502;2023-05-07T02:11:10;15.70;77.50
78788;DHT22;68131;52.508;5.502;2023-05-07T02:13:39;15.70;77.60
78788;DHT22;68131;52.508;5.502;2023-05-07T02:16:08;15.70;77.70
78788;DHT22;68131;52.508;5.502;2023-05-07T02:18:39;15.60;77.90
78788;DHT22;68131;52.508;5.502;2023-05-07T02:21:08;15.60;77.80
78788;DHT22;68131;52.508;5.502;2023-05-07T02:23:40;15.60;77.90
78788;DHT22;68131;52.508;5.502;2023-05-07T02:26:10;15.60;78.00
78788;DHT22;68131;52.508;5.502;2023-05-07T02:28:39;15.50;78.00
78788;DHT22;68131;52.508;5.502;2023-05-07T02:31:08;15.50;78.00
78788;DHT22;68131;52.508;5.502;2023-05-07T02:33:37;15.50;78.10
78788;DHT22;68131;52.508;5.502;2023-05-07T02:36:10;15.50;78.10
78788;DHT22;68131;52.508;5.502;2023-05-07T02:38:48;15.50;78.00
78788;DHT22;68131;52.508;5.502;2023-05-07T02:41:17;15.50;78.20
78788;DHT22;68131;52.508;5.502;2023-05-07T02:43:46;15.50;78.20
78788;DHT22;68131;52.508;5.502;2023-05-07T02:46:15;15.40;78.20
78788;DHT22;68131;52.508;5.502;2023-05-07T02:48:49;15.40;78.40
78788;DHT22;68131;52.508;5.502;2023-05-07T02:51:20;15.40;78.40
78788;DHT22;68131;52.508;5.502;2023-05-07T02:53:53;15.50;78.40
78788;DHT22;68131;52.508;5.502;2023-05-07T02:56:22;15.50;78.20
78788;DHT22;68131;52.508;5.502;2023-05-07T02:58:51;15.60;78.20
78788;DHT22;68131;52.508;5.502;2023-05-07T03:01:23;15.60;78.20
78788;DHT22;68131;52.508;5.502;2023-05-07T03:04:02;15.60;78.10
78788;DHT22;68131;52.508;5.502;2023-05-07T03:06:32;15.60;77.90
78788;DHT22;68131;52.508;5.502;2023-05-07T03:09:03;15.60;78.00
78788;DHT22;68131;52.508;5.502;2023-05-07T03:11:32;15.60;78.10
78788;DHT22;68131;52.508;5.502;2023-05-07T03:14:02;15.60;78.10
78788;DHT22;68131;52.508;5.502;2023-05-07T03:16:31;15.60;78.10
78788;DHT22;68131;52.508;5.502;2023-05-07T03:19:00;15.50;78.20
78788;DHT22;68131;52.508;5.502;2023-05-07T03:21:30;15.50;78.10
78788;DHT22;68131;52.508;5.502;2023-05-07T03:24:03;15.50;78.10
78788;DHT22;68131;52.508;5.502;2023-05-07T03:26:32;15.50;78.20
78788;DHT22;68131;52.508;5.502;2023-05-07T03:29:02;15.50;78.10
78788;DHT22;68131;52.508;5.502;2023-05-07T03:31:31;15.50;78.10
78788;DHT22;68131;52.508;5.502;2023-05-07T03:34:01;15.50;78.20
78788;DHT22;68131;52.508;5.502;2023-05-07T03:36:30;15.50;78.20
78788;DHT22;68131;52.508;5.502;2023-05-07T03:38:59;15.50;78.20
78788;DHT22;68131;52.508;5.502;2023-05-07T03:41:38;15.50;78.30
78788;DHT22;68131;52.508;5.502;2023-05-07T03:44:09;15.50;78.30
78788;DHT22;68131;52.508;5.502;2023-05-07T03:46:38;15.40;78.50
78788;DHT22;68131;52.508;5.502;2023-05-07T03:49:10;15.40;78.40
78788;DHT22;68131;52.508;5.502;2023-05-07T03:51:39;15.40;78.50
78788;DHT22;68131;52.508;5.502;2023-05-07T03:54:08;15.30;78.50
78788;DHT22;68131;52.508;5.502;2023-05-07T03:56:45;15.30;78.80
78788;DHT22;68131;52.508;5.502;2023-05-07T03:59:15;15.30;78.80
78788;DHT22;68131;52.508;5.502;2023-05-07T04:01:46;15.30;78.80
78788;DHT22;68131;52.508;5.502;2023-05-07T04:04:17;15.30;78.80
78788;DHT22;68131;52.508;5.502;2023-05-07T04:06:47;15.30;78.80
78788;DHT22;68131;52.508;5.502;2023-05-07T04:09:16;15.30;78.80
78788;DHT22;68131;52.508;5.502;2023-05-07T04:11:50;15.20;78.90
78788;DHT22;68131;52.508;5.502;2023-05-07T04:14:19;15.20;78.80
78788;DHT22;68131;52.508;5.502;2023-05-07T04:16:49;15.20;78.80
78788;DHT22;68131;52.508;5.502;2023-05-07T04:19:18;15.20;79.00
78788;DHT22;68131;52.508;5.502;2023-05-07T04:21:51;15.20;79.10
78788;DHT22;68131;52.508;5.502;2023-05-07T04:24:21;15.10;79.10
78788;DHT22;68131;52.508;5.502;2023-05-07T04:26:53;15.10;79.00
78788;DHT22;68131;52.508;5.502;2023-05-07T04:29:23;15.10;78.90
78788;DHT22;68131;52.508;5.502;2023-05-07T04:31:52;15.10;79.10
78788;DHT22;68131;52.508;5.502;2023-05-07T04:34:22;15.10;78.90
78788;DHT22;68131;52.508;5.502;2023-05-07T04:36:51;15.10;79.10
78788;DHT22;68131;52.508;5.502;2023-05-07T04:39:20;15.10;79.10
78788;DHT22;68131;52.508;5.502;2023-05-07T04:41:52;15.10;79.20
78788;DHT22;68131;52.508;5.502;2023-05-07T04:44:22;15.00;79.10
78788;DHT22;68131;52.508;5.502;2023-05-07T04:46:51;15.00;79.30
78788;DHT22;68131;52.508;5.502;2023-05-07T04:49:20;15.00;79.40
78788;DHT22;68131;52.508;5.502;2023-05-07T04:51:52;15.00;79.30
78788;DHT22;68131;52.508;5.502;2023-05-07T04:54:23;15.10;79.50
78788;DHT22;68131;52.508;5.502;2023-05-07T04:56:55;15.10;79.50
78788;DHT22;68131;52.508;5.502;2023-05-07T04:59:25;15.10;79.40
78788;DHT22;68131;52.508;5.502;2023-05-07T05:01:54;15.10;79.40
78788;DHT22;68131;52.508;5.502;2023-05-07T05:04:24;15.10;79.40
78788;DHT22;68131;52.508;5.502;2023-05-07T05:06:53;15.00;79.40
78788;DHT22;68131;52.508;5.502;2023-05-07T05:09:23;15.00;79.60
78788;DHT22;68131;52.508;5.502;2023-05-07T05:11:52;15.00;79.60
78788;DHT22;68131;52.508;5.502;2023-05-07T05:14:24;15.00;79.60
78788;DHT22;68131;52.508;5.502;2023-05-07T05:16:53;15.00;79.60
78788;DHT22;68131;52.508;5.502;2023-05-07T05:19:22;15.00;79.70
78788;DHT22;68131;52.508;5.502;2023-05-07T05:21:51;15.00;79.70
78788;DHT22;68131;52.508;5.502;2023-05-07T05:24:20;15.00;79.60
78788;DHT22;68131;52.508;5.502;2023-05-07T05:26:49;14.90;79.40
78788;DHT22;68131;52.508;5.502;2023-05-07T05:29:18;14.90;79.40
78788;DHT22;68131;52.508;5.502;2023-05-07T05:31:50;14.90;79.50
78788;DHT22;68131;52.508;5.502;2023-05-07T05:34:19;14.90;79.20
78788;DHT22;68131;52.508;5.502;2023-05-07T05:36:48;14.80;79.40
78788;DHT22;68131;52.508;5.502;2023-05-07T05:39:18;14.80;79.40
78788;DHT22;68131;52.508;5.502;2023-05-07T05:41:49;14.80;79.30
78788;DHT22;68131;52.508;5.502;2023-05-07T05:44:18;14.70;79.30
78788;DHT22;68131;52.508;5.502;2023-05-07T05:46:50;14.70;79.60
78788;DHT22;68131;52.508;5.502;2023-05-07T05:49:21;14.70;79.60
78788;DHT22;68131;52.508;5.502;2023-05-07T05:51:51;14.80;79.40
78788;DHT22;68131;52.508;5.502;2023-05-07T05:54:21;14.80;79.30
78788;DHT22;68131;52.508;5.502;2023-05-07T05:56:50;14.80;79.30
78788;DHT22;68131;52.508;5.502;2023-05-07T05:59:20;14.80;79.30
78788;DHT22;68131;52.508;5.502;2023-05-07T06:01:52;14.80;79.40
78788;DHT22;68131;52.508;5.502;2023-05-07T06:04:21;14.70;79.30
78788;DHT22;68131;52.508;5.502;2023-05-07T06:06:50;14.80;79.40
78788;DHT22;68131;52.508;5.502;2023-05-07T06:09:20;14.80;79.60
78788;DHT22;68131;52.508;5.502;2023-05-07T06:11:50;14.90;79.50
78788;DHT22;68131;52.508;5.502;2023-05-07T06:14:20;14.90;79.30
78788;DHT22;68131;52.508;5.502;2023-05-07T06:16:51;14.90;79.20
78788;DHT22;68131;52.508;5.502;2023-05-07T06:19:20;15.00;78.90
78788;DHT22;68131;52.508;5.502;2023-05-07T06:21:51;15.00;78.80
78788;DHT22;68131;52.508;5.502;2023-05-07T06:24:20;15.00;78.80
78788;DHT22;68131;52.508;5.502;2023-05-07T06:26:49;15.00;78.60
78788;DHT22;68131;52.508;5.502;2023-05-07T06:29:18;15.10;78.50
78788;DHT22;68131;52.508;5.502;2023-05-07T06:31:47;15.10;78.10
78788;DHT22;68131;52.508;5.502;2023-05-07T06:34:19;15.00;77.90
78788;DHT22;68131;52.508;5.502;2023-05-07T06:36:48;15.00;78.10
78788;DHT22;68131;52.508;5.502;2023-05-07T06:39:37;15.00;78.00
78788;DHT22;68131;52.508;5.502;2023-05-07T06:42:07;15.00;77.80
78788;DHT22;68131;52.508;5.502;2023-05-07T06:44:40;15.00;77.80
78788;DHT22;68131;52.508;5.502;2023-05-07T06:47:15;15.00;77.90
78788;DHT22;68131;52.508;5.502;2023-05-07T06:49:51;15.00;78.20
78788;DHT22;68131;52.508;5.502;2023-05-07T06:52:23;15.10;78.20
78788;DHT22;68131;52.508;5.502;2023-05-07T06:54:53;15.10;78.10
78788;DHT22;68131;52.508;5.502;2023-05-07T06:57:24;15.10;77.90
78788;DHT22;68131;52.508;5.502;2023-05-07T06:59:53;15.10;77.90
78788;DHT22;68131;52.508;5.502;2023-05-07T07:02:22;15.20;77.90
78788;DHT22;68131;52.508;5.502;2023-05-07T07:04:54;15.30;78.00
78788;DHT22;68131;52.508;5.502;2023-05-07T07:07:23;15.40;77.60
78788;DHT22;68131;52.508;5.502;2023-05-07T07:09:52;15.50;77.30
78788;DHT22;68131;52.508;5.502;2023-05-07T07:12:21;15.50;77.00
78788;DHT22;68131;52.508;5.502;2023-05-07T07:14:52;15.50;77.10
78788;DHT22;68131;52.508;5.502;2023-05-07T07:17:22;15.60;77.20
78788;DHT22;68131;52.508;5.502;2023-05-07T07:19:54;15.70;77.00
78788;DHT22;68131;52.508;5.502;2023-05-07T07:22:23;15.70;76.90
78788;DHT22;68131;52.508;5.502;2023-05-07T07:24:52;15.70;76.40
78788;DHT22;68131;52.508;5.502;2023-05-07T07:27:23;15.70;76.40
78788;DHT22;68131;52.508;5.502;2023-05-07T07:29:52;15.80;76.30
78788;DHT22;68131;52.508;5.502;2023-05-07T07:32:21;15.80;76.30
78788;DHT22;68131;52.508;5.502;2023-05-07T07:34:55;15.80;76.20
78788;DHT22;68131;52.508;5.502;2023-05-07T07:37:24;15.80;76.40
78788;DHT22;68131;52.508;5.502;2023-05-07T07:39:55;15.90;76.40
78788;DHT22;68131;52.508;5.502;2023-05-07T07:42:25;15.90;76.10
78788;DHT22;68131;52.508;5.502;2023-05-07T07:44:55;16.00;76.00
78788;DHT22;68131;52.508;5.502;2023-05-07T07:47:28;16.00;76.20
78788;DHT22;68131;52.508;5.502;2023-05-07T07:50:00;16.20;76.10
78788;DHT22;68131;52.508;5.502;2023-05-07T07:52:29;16.40;75.60
78788;DHT22;68131;52.508;5.502;2023-05-07T07:54:58;16.50;74.90
78788;DHT22;68131;52.508;5.502;2023-05-07T07:57:28;16.60;75.00
78788;DHT22;68131;52.508;5.502;2023-05-07T07:59:57;16.70;74.90
78788;DHT22;68131;52.508;5.502;2023-05-07T08:02:27;17.00;75.00
78788;DHT22;68131;52.508;5.502;2023-05-07T08:04:56;17.30;74.20
78788;DHT22;68131;52.508;5.502;2023-05-07T08:07:28;17.50;73.70
78788;DHT22;68131;52.508;5.502;2023-05-07T08:09:57;17.70;72.40
78788;DHT22;68131;52.508;5.502;2023-05-07T08:12:26;17.70;72.00
78788;DHT22;68131;52.508;5.502;2023-05-07T08:14:56;17.90;71.80
78788;DHT22;68131;52.508;5.502;2023-05-07T08:17:25;18.20;71.60
78788;DHT22;68131;52.508;5.502;2023-05-07T08:19:55;18.40;71.90
78788;DHT22;68131;52.508;5.502;2023-05-07T08:22:24;18.60;70.30
78788;DHT22;68131;52.508;5.502;2023-05-07T08:24:57;18.40;70.40
78788;DHT22;68131;52.508;5.502;2023-05-07T08:27:26;18.40;70.20
78788;DHT22;68131;52.508;5.502;2023-05-07T08:29:56;18.40;70.40
78788;DHT22;68131;52.508;5.502;2023-05-07T08:32:25;18.40;70.30
78788;DHT22;68131;52.508;5.502;2023-05-07T08:34:55;18.30;70.50
78788;DHT22;68131;52.508;5.502;2023-05-07T08:37:24;18.30;70.70
78788;DHT22;68131;52.508;5.502;2023-05-07T08:39:53;18.40;70.60
78788;DHT22;68131;52.508;5.502;2023-05-07T08:42:29;18.50;70.50
78788;DHT22;68131;52.508;5.502;2023-05-07T08:45:00;18.50;70.00
78788;DHT22;68131;52.508;5.502;2023-05-07T08:47:41;18.50;70.00
78788;DHT22;68131;52.508;5.502;2023-05-07T08:50:11;18.60;69.90
78788;DHT22;68131;52.508;5.502;2023-05-07T08:52:40;18.80;69.50
78788;DHT22;68131;52.508;5.502;2023-05-07T08:55:10;18.90;69.10
78788;DHT22;68131;52.508;5.502;2023-05-07T08:57:42;18.90;68.90
78788;DHT22;68131;52.508;5.502;2023-05-07T09:00:13;19.10;69.10
78788;DHT22;68131;52.508;5.502;2023-05-07T09:02:44;19.50;69.00
78788;DHT22;68131;52.508;5.502;2023-05-07T09:05:13;19.60;67.90
78788;DHT22;68131;52.508;5.502;2023-05-07T09:07:42;19.80;68.10
78788;DHT22;68131;52.508;5.502;2023-05-07T09:10:14;19.90;67.90
78788;DHT22;68131;52.508;5.502;2023-05-07T09:12:49;19.90;67.20
78788;DHT22;68131;52.508;5.502;2023-05-07T09:15:19;19.80;67.30
78788;DHT22;68131;52.508;5.502;2023-05-07T09:17:49;19.60;67.40
78788;DHT22;68131;52.508;5.502;2023-05-07T09:20:18;19.50;67.70
78788;DHT22;68131;52.508;5.502;2023-05-07T09:22:49;19.40;68.30
78788;DHT22;68131;52.508;5.502;2023-05-07T09:25:28;19.20;68.70
78788;DHT22;68131;52.508;5.502;2023-05-07T09:28:01;19.20;68.80
78788;DHT22;68131;52.508;5.502;2023-05-07T09:30:32;19.10;68.90
78788;DHT22;68131;52.508;5.502;2023-05-07T09:33:04;19.00;69.30
78788;DHT22;68131;52.508;5.502;2023-05-07T09:35:37;19.10;69.70
78788;DHT22;68131;52.508;5.502;2023-05-07T09:38:12;19.20;69.50
78788;DHT22;68131;52.508;5.502;2023-05-07T09:40:42;19.20;68.90
78788;DHT22;68131;52.508;5.502;2023-05-07T09:43:16;19.20;68.80
78788;DHT22;68131;52.508;5.502;2023-05-07T09:45:52;19.20;69.00
78788;DHT22;68131;52.508;5.502;2023-05-07T09:48:25;19.20;69.20
78788;DHT22;68131;52.508;5.502;2023-05-07T09:50:57;19.20;69.10
78788;DHT22;68131;52.508;5.502;2023-05-07T09:53:30;19.20;69.00
78788;DHT22;68131;52.508;5.502;2023-05-07T09:56:03;19.20;69.10
78788;DHT22;68131;52.508;5.502;2023-05-07T09:58:37;19.10;69.10
78788;DHT22;68131;52.508;5.502;2023-05-07T10:01:06;19.10;69.50
78788;DHT22;68131;52.508;5.502;2023-05-07T10:03:36;19.10;69.20
78788;DHT22;68131;52.508;5.502;2023-05-07T10:06:07;19.00;69.10
78788;DHT22;68131;52.508;5.502;2023-05-07T10:08:37;18.90;69.20
78788;DHT22;68131;52.508;5.502;2023-05-07T10:11:08;18.90;69.40
78788;DHT22;68131;52.508;5.502;2023-05-07T10:13:41;18.90;69.40
78788;DHT22;68131;52.508;5.502;2023-05-07T10:16:11;18.90;69.70
78788;DHT22;68131;52.508;5.502;2023-05-07T10:18:46;19.00;69.40
78788;DHT22;68131;52.508;5.502;2023-05-07T10:21:20;19.10;69.60
78788;DHT22;68131;52.508;5.502;2023-05-07T10:23:58;19.20;69.60
78788;DHT22;68131;52.508;5.502;2023-05-07T10:26:30;19.30;69.50
78788;DHT22;68131;52.508;5.502;2023-05-07T10:29:07;19.40;69.30
78788;DHT22;68131;52.508;5.502;2023-05-07T10:31:55;19.50;68.90
78788;DHT22;68131;52.508;5.502;2023-05-07T10:34:36;19.50;69.20
78788;DHT22;68131;52.508;5.502;2023-05-07T10:37:06;19.70;69.20
78788;DHT22;68131;52.508;5.502;2023-05-07T10:39:36;19.70;69.40
78788;DHT22;68131;52.508;5.502;2023-05-07T10:42:09;19.80;69.50
78788;DHT22;68131;52.508;5.502;2023-05-07T10:44:45;19.90;68.90
78788;DHT22;68131;52.508;5.502;2023-05-07T10:47:21;19.90;69.10
78788;DHT22;68131;52.508;5.502;2023-05-07T10:50:22;20.10;68.70
78788;DHT22;68131;52.508;5.502;2023-05-07T10:53:22;20.10;68.60
78788;DHT22;68131;52.508;5.502;2023-05-07T10:56:26;20.20;68.20
78788;DHT22;68131;52.508;5.502;2023-05-07T10:59:30;20.20;68.20
78788;DHT22;68131;52.508;5.502;2023-05-07T11:02:14;20.20;67.80
78788;DHT22;68131;52.508;5.502;2023-05-07T11:08:05;20.30;66.60
78788;DHT22;68131;52.508;5.502;2023-05-07T11:10:53;20.30;66.10
78788;DHT22;68131;52.508;5.502;2023-05-07T11:13:42;20.50;65.90
78788;DHT22;68131;52.508;5.502;2023-05-07T11:16:19;20.70;65.40
78788;DHT22;68131;52.508;5.502;2023-05-07T11:18:55;20.70;65.70
78788;DHT22;68131;52.508;5.502;2023-05-07T11:21:35;20.80;65.40
78788;DHT22;68131;52.508;5.502;2023-05-07T11:24:21;20.90;65.90
78788;DHT22;68131;52.508;5.502;2023-05-07T11:26:55;21.00;65.80
78788;DHT22;68131;52.508;5.502;2023-05-07T11:29:26;21.00;65.50
78788;DHT22;68131;52.508;5.502;2023-05-07T11:32:01;21.00;64.90
78788;DHT22;68131;52.508;5.502;2023-05-07T11:34:40;21.00;64.90
78788;DHT22;68131;52.508;5.502;2023-05-07T11:37:10;21.00;64.90
78788;DHT22;68131;52.508;5.502;2023-05-07T11:40:02;20.90;64.70
78788;DHT22;68131;52.508;5.502;2023-05-07T11:42:33;20.80;64.90
78788;DHT22;68131;52.508;5.502;2023-05-07T11:45:04;20.80;64.70
78788;DHT22;68131;52.508;5.502;2023-05-07T11:47:34;20.90;64.30
78788;DHT22;68131;52.508;5.502;2023-05-07T11:50:09;20.90;64.60
78788;DHT22;68131;52.508;5.502;2023-05-07T11:52:39;20.90;64.90
78788;DHT22;68131;52.508;5.502;2023-05-07T11:55:08;20.90;64.40
78788;DHT22;68131;52.508;5.502;2023-05-07T11:57:37;20.80;63.80
78788;DHT22;68131;52.508;5.502;2023-05-07T12:00:09;20.80;63.90
78788;DHT22;68131;52.508;5.502;2023-05-07T12:02:41;20.90;64.30
78788;DHT22;68131;52.508;5.502;2023-05-07T12:05:13;20.90;64.20
78788;DHT22;68131;52.508;5.502;2023-05-07T12:07:42;20.90;63.80
78788;DHT22;68131;52.508;5.502;2023-05-07T12:10:12;20.90;63.80
78788;DHT22;68131;52.508;5.502;2023-05-07T12:12:46;20.90;63.40
78788;DHT22;68131;52.508;5.502;2023-05-07T12:15:16;20.80;64.10
78788;DHT22;68131;52.508;5.502;2023-05-07T12:17:45;20.90;64.60
78788;DHT22;68131;52.508;5.502;2023-05-07T12:20:17;21.00;64.20
78788;DHT22;68131;52.508;5.502;2023-05-07T12:22:48;21.00;64.10
78788;DHT22;68131;52.508;5.502;2023-05-07T12:25:19;21.00;64.10
78788;DHT22;68131;52.508;5.502;2023-05-07T12:27:51;21.10;64.20
78788;DHT22;68131;52.508;5.502;2023-05-07T12:30:21;21.10;64.10
78788;DHT22;68131;52.508;5.502;2023-05-07T12:32:53;21.10;64.20
78788;DHT22;68131;52.508;5.502;2023-05-07T12:35:36;21.10;64.70
78788;DHT22;68131;52.508;5.502;2023-05-07T12:38:08;21.10;64.40
78788;DHT22;68131;52.508;5.502;2023-05-07T12:40:38;21.00;64.70
78788;DHT22;68131;52.508;5.502;2023-05-07T12:43:07;21.20;65.00
78788;DHT22;68131;52.508;5.502;2023-05-07T12:45:37;21.30;64.80
78788;DHT22;68131;52.508;5.502;2023-05-07T12:48:09;21.40;63.60
78788;DHT22;68131;52.508;5.502;2023-05-07T12:50:41;21.30;63.50
78788;DHT22;68131;52.508;5.502;2023-05-07T12:53:12;21.20;63.50
78788;DHT22;68131;52.508;5.502;2023-05-07T12:55:42;21.10;62.90
78788;DHT22;68131;52.508;5.502;2023-05-07T12:58:16;21.00;63.50
78788;DHT22;68131;52.508;5.502;2023-05-07T13:00:47;20.90;63.30
78788;DHT22;68131;52.508;5.502;2023-05-07T13:03:24;20.90;63.10
78788;DHT22;68131;52.508;5.502;2023-05-07T13:05:58;20.90;63.10
78788;DHT22;68131;52.508;5.502;2023-05-07T13:08:29;20.90;63.10
78788;DHT22;68131;52.508;5.502;2023-05-07T13:11:00;20.90;63.60
78788;DHT22;68131;52.508;5.502;2023-05-07T13:13:30;20.90;63.70
78788;DHT22;68131;52.508;5.502;2023-05-07T13:15:59;20.90;64.00
78788;DHT22;68131;52.508;5.502;2023-05-07T13:18:30;21.00;64.40
78788;DHT22;68131;52.508;5.502;2023-05-07T13:21:02;21.10;63.80
78788;DHT22;68131;52.508;5.502;2023-05-07T13:23:31;21.20;64.00
78788;DHT22;68131;52.508;5.502;2023-05-07T13:26:00;21.30;64.20
78788;DHT22;68131;52.508;5.502;2023-05-07T13:28:30;21.30;63.80
78788;DHT22;68131;52.508;5.502;2023-05-07T13:30:59;21.40;64.00
78788;DHT22;68131;52.508;5.502;2023-05-07T13:33:28;21.40;63.80
78788;DHT22;68131;52.508;5.502;2023-05-07T13:35:58;21.40;63.80
78788;DHT22;68131;52.508;5.502;2023-05-07T13:38:29;21.50;63.90
78788;DHT22;68131;52.508;5.502;2023-05-07T13:40:58;21.50;63.70
78788;DHT22;68131;52.508;5.502;2023-05-07T13:43:27;21.50;63.70
78788;DHT22;68131;52.508;5.502;2023-05-07T13:45:58;21.40;63.40
78788;DHT22;68131;52.508;5.502;2023-05-07T13:48:27;21.30;63.40
78788;DHT22;68131;52.508;5.502;2023-05-07T13:50:56;21.30;63.80
78788;DHT22;68131;52.508;5.502;2023-05-07T13:53:25;21.20;63.80
78788;DHT22;68131;52.508;5.502;2023-05-07T13:55:57;21.10;63.80
78788;DHT22;68131;52.508;5.502;2023-05-07T13:58:26;21.10;63.80
78788;DHT22;68131;52.508;5.502;2023-05-07T14:00:55;21.00;64.20
78788;DHT22;68131;52.508;5.502;2023-05-07T14:03:24;21.00;64.60
78788;DHT22;68131;52.508;5.502;2023-05-07T14:05:53;21.00;64.60
78788;DHT22;68131;52.508;5.502;2023-05-07T14:08:23;20.90;64.70
78788;DHT22;68131;52.508;5.502;2023-05-07T14:10:53;20.90;64.50
78788;DHT22;68131;52.508;5.502;2023-05-07T14:13:24;20.80;64.70
78788;DHT22;68131;52.508;5.502;2023-05-07T14:15:54;20.80;64.60
78788;DHT22;68131;52.508;5.502;2023-05-07T14:18:23;20.80;64.40
78788;DHT22;68131;52.508;5.502;2023-05-07T14:20:52;20.70;64.60
78788;DHT22;68131;52.508;5.502;2023-05-07T14:23:21;20.70;64.80
78788;DHT22;68131;52.508;5.502;2023-05-07T14:25:52;20.70;64.90
78788;DHT22;68131;52.508;5.502;2023-05-07T14:28:26;20.70;65.30
78788;DHT22;68131;52.508;5.502;2023-05-07T14:30:55;20.70;65.40
78788;DHT22;68131;52.508;5.502;2023-05-07T14:33:24;20.60;65.30
78788;DHT22;68131;52.508;5.502;2023-05-07T14:35:53;20.60;65.40
78788;DHT22;68131;52.508;5.502;2023-05-07T14:38:22;20.60;65.50
78788;DHT22;68131;52.508;5.502;2023-05-07T14:40:51;20.60;65.40
78788;DHT22;68131;52.508;5.502;2023-05-07T14:43:24;20.60;65.20
78788;DHT22;68131;52.508;5.502;2023-05-07T14:45:53;20.60;65.50
78788;DHT22;68131;52.508;5.502;2023-05-07T14:48:23;20.60;65.80
78788;DHT22;68131;52.508;5.502;2023-05-07T14:50:52;20.50;65.80
78788;DHT22;68131;52.508;5.502;2023-05-07T14:53:22;20.50;65.80
78788;DHT22;68131;52.508;5.502;2023-05-07T14:55:51;20.50;65.90
78788;DHT22;68131;52.508;5.502;2023-05-07T14:58:21;20.50;66.10
78788;DHT22;68131;52.508;5.502;2023-05-07T15:00:52;20.60;65.70
78788;DHT22;68131;52.508;5.502;2023-05-07T15:03:21;20.60;65.40
78788;DHT22;68131;52.508;5.502;2023-05-07T15:05:51;20.60;65.00
78788;DHT22;68131;52.508;5.502;2023-05-07T15:08:20;20.50;65.00
78788;DHT22;68131;52.508;5.502;2023-05-07T15:10:49;20.50;65.20
78788;DHT22;68131;52.508;5.502;2023-05-07T15:13:18;20.50;65.00
78788;DHT22;68131;52.508;5.502;2023-05-07T15:15:48;20.50;65.30
78788;DHT22;68131;52.508;5.502;2023-05-07T15:18:19;20.40;64.90
78788;DHT22;68131;52.508;5.502;2023-05-07T15:20:48;20.40;65.10
78788;DHT22;68131;52.508;5.502;2023-05-07T15:23:18;20.40;65.20
78788;DHT22;68131;52.508;5.502;2023-05-07T15:25:48;20.30;65.20
78788;DHT22;68131;52.508;5.502;2023-05-07T15:28:18;20.30;65.40
78788;DHT22;68131;52.508;5.502;2023-05-07T15:30:47;20.20;65.60
78788;DHT22;68131;52.508;5.502;2023-05-07T15:33:18;20.20;65.60
78788;DHT22;68131;52.508;5.502;2023-05-07T15:35:48;20.20;65.50
78788;DHT22;68131;52.508;5.502;2023-05-07T15:38:17;20.20;65.50
78788;DHT22;68131;52.508;5.502;2023-05-07T15:40:46;20.20;65.40
78788;DHT22;68131;52.508;5.502;2023-05-07T15:43:16;20.20;65.40
78788;DHT22;68131;52.508;5.502;2023-05-07T15:45:45;20.20;65.50
78788;DHT22;68131;52.508;5.502;2023-05-07T15:48:14;20.20;65.60
78788;DHT22;68131;52.508;5.502;2023-05-07T15:50:46;20.20;65.60
78788;DHT22;68131;52.508;5.502;2023-05-07T15:53:15;20.20;65.70
78788;DHT22;68131;52.508;5.502;2023-05-07T15:55:44;20.20;65.80
78788;DHT22;68131;52.508;5.502;2023-05-07T15:58:13;20.20;65.70